Historique des mesures à Cassis (13260), France
Quotidien Résumé Mai 6, 2017 Unités:  Métrique    US   Métrique/US
« Précédent (Jour)
Suivant (Jour) »
Quotidien Hebdomadaire Mensuel Annuel Période au choix
  Maximum: Minimum: Moyenne:
Température: TemperatureC °C 13.4 °C 16.3 °C
Point de rosée: DewpointC °C 4.3 °C 7.7 °C
Humidité: Humidity % 41 % 55 %
Vitesse du vent: 0 km/h 0 km/h 15.9 km/h
Rafales: 0 km/h - -
Vent:- - South
Pression: PressurehPa hPa 1004.6 hPa -
Précipitations: 6.1 mm    
Historical Graphs
 
 
Mesures pour : Mai 6, 2017
Heure Temperature Point de rosée Pression Vent Vitesse du vent Rafales Humidité Pluie (par heure) Conditions
TemperatureC °C DewpointC °C PressurehPa hPa Calm     Humidity % HourlyPrecipMM mm SoftwareType W/m2
00:10 16.6 °C 6.4 °C 1009.7 hPa ENE 2.3 km/h 2.3 km/h 51 % 0.0 mm open2300-1.11 W/m2
01:10 16.4 °C 5.7 °C 1009.4 hPa ENE 8.9 km/h 8.9 km/h 49 % 0.0 mm open2300-1.11 W/m2
02:10 15.9 °C 5.2 °C 1008.7 hPa East 4.2 km/h 4.2 km/h 49 % 0.0 mm open2300-1.11 W/m2
03:10 17.4 °C 4.3 °C 1007.3 hPa ENE 6.4 km/h 17.4 km/h 42 % 0.0 mm open2300-1.11 W/m2
04:10 17.7 °C 4.9 °C 1007.7 hPa SE 10.9 km/h 17.9 km/h 43 % 0.0 mm open2300-1.11 W/m2
05:11 18.1 °C 5.3 °C 1007.0 hPa ESE 8 km/h 9.3 km/h 43 % 0.0 mm open2300-1.11 W/m2
06:10 18.5 °C 5.0 °C 1005.3 hPa ESE 15 km/h 22 km/h 41 % 0.0 mm open2300-1.11 W/m2
07:10 18.7 °C 5.2 °C 1004.6 hPa SSE 4.2 km/h 33.2 km/h 41 % 0.0 mm open2300-1.11 W/m2
08:10 19.0 °C 6.1 °C 1005.0 hPa ESE 7.6 km/h 19.2 km/h 43 % 0.0 mm open2300-1.11 W/m2
09:10 19.6 °C 7.3 °C 1006.0 hPa SSW 5.6 km/h 6.4 km/h 45 % 0.0 mm open2300-1.11 W/m2
10:10 18.8 °C 7.9 °C 1006.0 hPa SE 11.6 km/h 13.2 km/h 49 % 0.0 mm open2300-1.11 W/m2
11:10 16.7 °C 10.1 °C 1006.3 hPa SE 16.3 km/h 16.3 km/h 65 % 0.0 mm open2300-1.11 W/m2
12:10 14.3 °C 10.7 °C 1007.7 hPa NNE 6.4 km/h 10.9 km/h 79 % 5.6 mm open2300-1.11 W/m2
13:11 14.8 °C 11.6 °C 1007.0 hPa Calm   2.3 km/h 81 % 0.0 mm open2300-1.11 W/m2
14:10 13.4 °C 10.4 °C 1008.4 hPa NW 49.2 km/h 49.2 km/h 82 % 0.5 mm open2300-1.11 W/m2
15:10 15.1 °C 11.5 °C 1009.0 hPa WNW 27.7 km/h 31.4 km/h 79 % 0.0 mm open2300-1.11 W/m2
16:10 17.3 °C 11.6 °C 1009.4 hPa NNW 17.4 km/h 48.6 km/h 69 % 0.0 mm open2300-1.11 W/m2
17:10 18.4 °C 10.7 °C 1009.7 hPa NW 27.2 km/h 31.4 km/h 61 % 0.0 mm open2300-1.11 W/m2
18:10 18.1 °C 9.9 °C 1009.7 hPa NW 29 km/h 33.2 km/h 59 % 0.0 mm open2300-1.11 W/m2
19:10 17.8 °C 8.6 °C 1010.0 hPa NNW 44.1 km/h 44.1 km/h 55 % 0.0 mm open2300-1.11 W/m2
20:10 17.3 °C 8.9 °C 1011.1 hPa North 23 km/h 58.6 km/h 58 % 0.0 mm open2300-1.11 W/m2
21:10 16.4 °C 9.1 °C 1012.1 hPa NW 23 km/h 23 km/h 62 % 0.0 mm open2300-1.11 W/m2
22:10 15.9 °C 8.9 °C 1012.8 hPa NW 37.5 km/h 37.5 km/h 63 % 0.0 mm open2300-1.11 W/m2
23:11 15.8 °C 8.3 °C 1013.1 hPa NNE 11.6 km/h 25.4 km/h 61 % 0.0 mm open2300-1.11 W/m2
Observations météo à CASSIS
WU-History script by Weather Underground - 1 mb